• Join FlightAware (Why Join?)
  • Login
  • US Flag 
12:09PM EDT


 

Airport Tracker/Info


-or-


 

Live Flight TrackerFlight Track Log ✈ UAL256 ✈ 09-May-2013 ✈ KSEA - KDEN

Flight Track Log - Related Links

Times and Time Zones

All times are in EDT time to prevent confusion due to time zone crossing. See the UAL256 flight status page for this flight to view local times or setup timezone preferences in your user account.

Time Position Orientation Groundspeed Altitude Reporting Facility
EDT Latitude Longitude Course Direction KTS MPH feet Rate Location/Type
06:16PM 47.4614 -122.3089 90° East 164 189 1,100  Level Seattle Center
06:17PM 47.5222 -122.3117 358° North 208 239 2,800 1,740 Climbing Seattle Center
06:18PM 47.5975 -122.3000 North 260 299 4,900 2,280 Climbing Seattle Center
06:19PM 47.4167 -121.6241 90° East  Level FlightAware Approximate
06:19PM 47.6108 -122.1947 79° East 282 325 7,600  Level Seattle Center
06:20PM 47.4167 -121.4542 90° East  Level FlightAware Approximate
06:20PM 47.6122 -122.0733 89° East 293 337 10,200  Level Seattle Center
06:21PM 47.4168 -121.2844 90° East  Level FlightAware Approximate
06:21PM 47.6058 -121.9383 94° East 336 387 11,300  Level Seattle Center
06:22PM 47.5697 -121.7869 109° East 363 418 13,900 2,280 Climbing Seattle Center
06:23PM 47.5208 -121.6514 118° Southeast 374 430 16,000 1,860 Climbing Seattle Center
06:24PM 47.4692 -121.5142 119° Southeast 381 438 17,700 1,620 Climbing Seattle Center
06:25PM 47.4164 -121.3731 119° Southeast 394 453 19,300 1,260 Climbing Seattle Center
06:26PM 47.3608 -121.2228 119° Southeast 420 483 20,300 1,140 Climbing Seattle Center
06:27PM 47.3017 -121.0686 119° Southeast 434 499 21,700 1,320 Climbing Seattle Center
06:28PM 47.2417 -120.9114 119° Southeast 444 511 23,000 1,140 Climbing Seattle Center
06:29PM 47.1758 -120.7400 119° Southeast 454 522 24,100 1,080 Climbing Seattle Center
06:30PM 47.1131 -120.5769 119° Southeast 458 527 25,200 1,080 Climbing Seattle Center
06:31PM 47.0486 -120.4125 120° Southeast 466 536 26,300 1,020 Climbing Seattle Center
06:32PM 46.9806 -120.2333 119° Southeast 472 543 27,300 1,020 Climbing Seattle Center
06:33PM 46.9139 -120.0675 120° Southeast 473 544 28,400 900 Climbing Seattle Center
06:34PM 46.8536 -119.9122 120° Southeast 475 547 29,200 780 Climbing Seattle Center
06:35PM 46.7867 -119.7456 120° Southeast 477 549 30,100 720 Climbing Seattle Center
06:36PM 46.7133 -119.5622 120° Southeast 481 554 30,700 840 Climbing Seattle Center
06:37PM 46.6450 -119.3919 120° Southeast 486 559 31,900 960 Climbing Seattle Center
06:38PM 46.5769 -119.2264 121° Southeast 477 549 32,700 720 Climbing Seattle Center
06:39PM 46.5103 -119.0597 120° Southeast 478 550 33,400 600 Climbing Seattle Center
06:40PM 46.4375 -118.8817 121° Southeast 470 541 34,000 600 Climbing Seattle Center
06:41PM 46.3681 -118.7153 121° Southeast 481 554 34,700 480 Climbing Seattle Center
06:42PM 46.3006 -118.5517 121° Southeast 478 550 35,000 60 Climbing Seattle Center
06:43PM 46.2328 -118.3886 121° Southeast 478 550 34,900 -60 Descending Seattle Center
06:44PM 46.1636 -118.2267 122° Southeast 477 549 34,900  Level Seattle Center
06:45PM 46.0950 -118.0622 121° Southeast 479 551 34,900  Level Seattle Center
06:47PM 46.0256 -117.9011 122° Southeast 477 549 34,900  Level Seattle Center
06:48PM 45.9428 -117.7075 122° Southeast 477 549 35,000  Climbing Seattle Center
06:49PM 45.8728 -117.5447 122° Southeast 479 551 35,000 -60 Level Seattle Center
06:50PM 45.8042 -117.3856 122° Southeast 474 545 34,900 -60 Descending Seattle Center
06:51PM 45.7356 -117.2281 122° Southeast 470 541 34,900  Level Seattle Center
06:52PM 45.6600 -117.0564 122° Southeast 476 548 35,000  Climbing Seattle Center
06:53PM 45.5922 -116.9025 122° Southeast 478 550 35,000  Level Seattle Center
06:54PM 45.5133 -116.7239 122° Southeast 478 550 35,000  Level Seattle Center
06:55PM 45.4458 -116.5725 122° Southeast 472 543 35,000  Level Seattle Center
06:56PM 45.3775 -116.4206 123° Southeast 474 545 35,000  Level Seattle Center
06:56PM 45.3556 -116.3703 122° Southeast 475 547 35,000  Level Salt Lake Center
06:57PM 45.2878 -116.2192 122° Southeast 474 545 35,000  Level Salt Lake Center
06:58PM 45.2306 -116.0944 123° Southeast 470 541 35,000  Level Seattle Center
06:59PM 45.1614 -115.9428 123° Southeast 473 544 35,000  Level Seattle Center
07:00PM 45.0828 -115.7686 123° Southeast 470 541 35,000  Level Seattle Center
07:00PM 45.0608 -115.7178 121° Southeast 473 544 35,000  Level Salt Lake Center
07:01PM 44.9911 -115.5692 124° Southeast 471 542 35,000  Level Salt Lake Center
07:02PM 44.9231 -115.4219 123° Southeast 468 539 35,000  Level Salt Lake Center
07:03PM 44.8414 -115.2472 123° Southeast 474 545 35,000  Level Salt Lake Center
07:04PM 44.7725 -115.1000 123° Southeast 471 542 35,000  Level Salt Lake Center
07:05PM 44.6914 -114.9283 124° Southeast 469 540 35,000  Level Salt Lake Center
07:06PM 44.6219 -114.7817 124° Southeast 470 541 35,000  Level Salt Lake Center
07:07PM 44.5517 -114.6339 124° Southeast 473 544 35,000 -60 Level Salt Lake Center
07:08PM 44.4711 -114.4639 124° Southeast 470 541 34,900  Descending Salt Lake Center
07:09PM 44.4011 -114.3172 124° Southeast 472 543 35,000  Climbing Salt Lake Center
07:10PM 44.3156 -114.1472 125° Southeast 478 550 35,000  Level Salt Lake Center
07:11PM 44.2447 -114.0019 124° Southeast 475 547 35,000  Level Salt Lake Center
07:12PM 44.1642 -113.8347 124° Southeast 473 544 35,000  Level Salt Lake Center
07:13PM 44.0911 -113.6894 125° Southeast 478 550 35,000  Level Salt Lake Center
07:14PM 44.0222 -113.5461 124° Southeast 471 542 35,000  Level Salt Lake Center
07:15PM 43.9372 -113.3789 125° Southeast 475 547 35,000  Level Salt Lake Center
07:16PM 43.8692 -113.2317 123° Southeast 476 548 35,000  Level Salt Lake Center
07:17PM 43.7917 -113.0608 122° Southeast 471 542 35,000  Level Salt Lake Center
07:19PM 43.7233 -112.9164 123° Southeast 471 542 35,000  Level Salt Lake Center
07:20PM 43.6436 -112.7456 123° Southeast 474 545 35,000  Level Salt Lake Center
07:21PM 43.5750 -112.5994 123° Southeast 476 548 35,000  Level Salt Lake Center
07:22PM 43.4975 -112.4353 123° Southeast 464 534 35,000  Level Salt Lake Center
07:23PM 43.4294 -112.2914 123° Southeast 469 540 35,000  Level Salt Lake Center
07:24PM 43.3606 -112.1497 124° Southeast 466 536 35,000  Level Salt Lake Center
07:25PM 43.2811 -111.9853 124° Southeast 464 534 35,000  Level Salt Lake Center
07:26PM 43.2119 -111.8425 124° Southeast 470 541 35,000  Level Salt Lake Center
07:27PM 43.1306 -111.6753 124° Southeast 473 544 35,000  Level Salt Lake Center
07:28PM 43.0617 -111.5350 124° Southeast 467 537 35,000  Level Salt Lake Center
07:29PM 42.9817 -111.3703 124° Southeast 468 539 35,000  Level Salt Lake Center
07:30PM 42.9117 -111.2289 124° Southeast 470 541 35,000  Level Salt Lake Center
07:31PM 42.8300 -111.0650 124° Southeast 470 541 35,000  Level Salt Lake Center
07:32PM 42.7617 -110.9267 124° Southeast 465 535 35,000  Level Salt Lake Center
07:33PM 42.6892 -110.7831 124° Southeast 467 537 35,000  Level Salt Lake Center
07:34PM 42.6069 -110.6219 125° Southeast 466 536 35,000  Level Salt Lake Center
07:35PM 42.5350 -110.4811 125° Southeast 474 545 35,000  Level Salt Lake Center
07:36PM 42.4528 -110.3172 124° Southeast 473 544 35,000  Level Salt Lake Center
07:37PM 42.3797 -110.1783 125° Southeast 474 545 35,000  Level Salt Lake Center
07:38PM 42.2969 -110.0164 125° Southeast 470 541 35,000  Level Salt Lake Center
07:39PM 42.2253 -109.8772 125° Southeast 471 542 35,000  Level Salt Lake Center
07:40PM 42.1422 -109.7169 125° Southeast 468 539 35,000  Level Salt Lake Center
07:41PM 42.0717 -109.5800 125° Southeast 467 537 35,000  Level Salt Lake Center
07:42PM 41.9989 -109.4422 125° Southeast 470 541 35,000  Level Salt Lake Center
07:43PM 41.9150 -109.2817 125° Southeast 470 541 35,000  Level Salt Lake Center
07:44PM 41.8419 -109.1444 126° Southeast 470 541 35,000  Level Salt Lake Center
07:45PM 41.7567 -108.9842 125° Southeast 470 541 35,000  Level Salt Lake Center
07:46PM 41.6839 -108.8467 125° Southeast 469 540 35,000  Level Salt Lake Center
07:47PM 41.6108 -108.7094 125° Southeast 469 540 35,000  Level Salt Lake Center
07:48PM 41.5261 -108.5533 126° Southeast 463 533 35,000  Level Salt Lake Center
07:49PM 41.4531 -108.4192 126° Southeast 465 535 35,000  Level Salt Lake Center
07:50PM 41.3686 -108.2633 126° Southeast 464 534 35,000  Level Salt Lake Center
07:51PM 41.3344 -108.1947 124° Southeast 461 531 35,000  Level Denver Center
07:51PM 41.3078 -108.1222 116° Southeast 464 534 35,000  Level Salt Lake Center
07:53PM 41.2414 -107.9525 117° Southeast 464 534 35,000  Level Salt Lake Center
07:54PM 41.1844 -107.8106 118° Southeast 456 525 35,000  Level Salt Lake Center
07:54PM 41.1561 -107.7364 117° Southeast 460 529 35,000  Level Denver Center
07:55PM 41.0886 -107.5694 118° Southeast 461 531 35,000  Level Denver Center
07:56PM 41.0325 -107.4261 117° Southeast 459 528 35,000  Level Denver Center
07:57PM 40.9650 -107.2586 118° Southeast 461 531 35,000  Level Denver Center
07:58PM 40.9072 -107.1150 118° Southeast 462 532 35,000 -60 Level Denver Center
07:59PM 40.8408 -106.9486 118° Southeast 460 529 34,900 -1,020 Descending Denver Center
08:00PM 40.7958 -106.7997 112° Southeast 458 527 32,900 -1,500 Descending Denver Center
08:01PM 40.7444 -106.6375 113° Southeast 454 522 31,900 -1,020 Descending Denver Center
08:02PM 40.6975 -106.4894 113° Southeast 456 525 30,900 -1,020 Descending Denver Center
08:03PM 40.6419 -106.3169 113° Southeast 458 527 29,800 -1,020 Descending Denver Center
08:04PM 40.5947 -106.1672 113° Southeast 460 529 28,900 -1,500 Descending Denver Center
08:05PM 40.5433 -106.0069 113° Southeast 463 533 26,800 -2,580 Descending Denver Center
08:06PM 40.4906 -105.8444 113° Southeast 472 543 23,600 -2,460 Descending Denver Center
08:07PM 40.4378 -105.6839 113° Southeast 479 551 21,800 -1,380 Descending Denver Center
08:09PM 40.3931 -105.5481 113° Southeast 430 495 20,800 -1,320 Descending Denver Center
08:10PM 40.3464 -105.4153 115° Southeast 351 404 19,100 -1,380 Descending Denver Center
08:11PM 40.2842 -105.3236 132° Southeast 337 388 18,000 -960 Descending Denver Center
08:12PM 40.2197 -105.2197 129° Southeast 341 392 17,200 -1,140 Descending Denver Center
08:13PM 40.1769 -105.1186 119° Southeast 320 368 15,700 -1,500 Descending Denver Center
08:14PM 40.1311 -105.0106 119° Southeast 316 364 14,100 -1,320 Descending Denver Center
08:15PM 40.0897 -104.9144 119° Southeast 306 352 13,000 -540 Descending Denver Center
08:16PM 40.0458 -104.8128 119° Southeast 300 345 13,000  Level Denver Center
08:17PM 40.0017 -104.7364 127° Southeast 267 307 13,000 -60 Level Denver Center
08:18PM 39.9506 -104.6692 135° Southeast 261 300 12,900 -660 Descending Denver Center
08:19PM 39.9000 -104.6000 134° Southeast 258 297 11,800 -1,020 Descending Denver TRACON
08:20PM 39.8500 -104.5333 134° Southeast 251 289 11,000 -420 Descending Denver TRACON
08:21PM 39.7833 -104.5167 169° South 259 298 11,000 -180 Level Denver TRACON
08:22PM 39.7167 -104.5167 180° South 254 292 10,700 -840 Descending Denver TRACON
08:23PM 39.6333 -104.5167 180° South 249 287 9,400 -1,020 Descending Denver TRACON
08:24PM 39.5669 -104.5233 184° South 243 280 8,600 -660 Descending Denver Center
08:25PM 39.5283 -104.5825 230° Southwest 223 257 8,000 -300 Descending Denver Center
08:26PM 39.5725 -104.6297 321° Northwest 217 250 8,000 -60 Level Denver Center
08:27PM 39.6317 -104.6439 350° North 203 234 7,900 -120 Descending Denver Center